Time;durP1;ratioP1;P1;durP2;ratioP2;P2;SDS_P1;SDS_P2;PMS_P1;PMS_P2;Temp;Humidity;BMP_temperature;BMP_pressure;BME280_temperature;BME280_humidity;BME280_pressure;Samples;Min_cycle;Max_cycle;Signal;HPM_P1;HPM_P2
2021/01/25 00:00:52;;;;;;;8.50;4.55;;;0.60;92.90;;;;;;5124670;27;27393;-46
2021/01/25 00:03:37;;;;;;;5.50;3.72;;;0.60;92.80;;;;;;5124928;27;27332;-46
2021/01/25 00:06:21;;;;;;;8.82;4.38;;;0.60;92.70;;;;;;5124713;27;27401;-47
2021/01/25 00:09:06;;;;;;;7.45;3.67;;;0.60;92.60;;;;;;5124581;27;27940;-47
2021/01/25 00:11:50;;;;;;;5.93;3.42;;;0.60;92.50;;;;;;5124546;27;27378;-46
2021/01/25 00:14:35;;;;;;;5.78;3.65;;;0.50;92.40;;;;;;5124672;27;27411;-46
2021/01/25 00:17:19;;;;;;;5.45;3.17;;;0.50;92.30;;;;;;5124845;27;27419;-47
2021/01/25 00:20:04;;;;;;;7.00;4.10;;;0.40;92.20;;;;;;5121428;27;27387;-47
2021/01/25 00:22:49;;;;;;;5.47;3.42;;;0.40;92.20;;;;;;5123623;27;27422;-46
2021/01/25 00:25:33;;;;;;;6.18;3.67;;;0.40;92.10;;;;;;5124082;27;27461;-47
2021/01/25 00:28:18;;;;;;;4.72;3.30;;;0.30;92.10;;;;;;5124463;27;27505;-47
2021/01/25 00:31:02;;;;;;;6.05;3.80;;;0.30;92.00;;;;;;5128202;27;27444;-47
2021/01/25 00:33:47;;;;;;;8.52;3.53;;;0.30;92.00;;;;;;5128127;27;27892;-48
2021/01/25 00:36:31;;;;;;;6.50;3.35;;;0.30;92.00;;;;;;5127823;27;27418;-47
2021/01/25 00:39:16;;;;;;;7.97;3.67;;;0.20;92.00;;;;;;5127839;27;27533;-47
2021/01/25 00:42:00;;;;;;;5.63;3.10;;;0.20;92.00;;;;;;5128223;27;27557;-46
2021/01/25 00:44:45;;;;;;;8.35;3.42;;;0.20;91.90;;;;;;5127869;27;27382;-49
2021/01/25 00:47:29;;;;;;;6.40;3.58;;;0.20;91.80;;;;;;5127951;27;27433;-46
2021/01/25 00:50:14;;;;;;;5.97;3.63;;;0.10;91.70;;;;;;5127719;27;27368;-46
2021/01/25 00:52:59;;;;;;;4.18;2.78;;;0.10;91.60;;;;;;5127502;27;27441;-47
2021/01/25 00:55:47;;;;;;;4.15;2.97;;;0.00;91.60;;;;;;5124482;27;27448;-47
2021/01/25 00:58:32;;;;;;;5.43;3.50;;;0.00;91.50;;;;;;5124102;27;27391;-48
2021/01/25 01:01:17;;;;;;;4.65;3.22;;;0.00;91.50;;;;;;5127754;27;27411;-46
2021/01/25 01:04:01;;;;;;;6.28;3.53;;;-0.10;91.40;;;;;;5127670;27;27474;-47
2021/01/25 01:06:45;;;;;;;4.55;2.85;;;-0.10;91.40;;;;;;5127265;27;27471;-47
2021/01/25 01:09:30;;;;;;;5.55;2.95;;;-0.10;91.50;;;;;;5126778;27;27602;-46
2021/01/25 01:12:14;;;;;;;6.65;3.13;;;-0.10;91.60;;;;;;5127259;27;27393;-45
2021/01/25 01:14:59;;;;;;;5.20;3.40;;;-0.10;91.70;;;;;;5127461;27;27310;-45
2021/01/25 01:17:43;;;;;;;4.95;3.35;;;-0.10;92.20;;;;;;5123334;27;27381;-43
2021/01/25 01:20:28;;;;;;;5.35;3.60;;;-0.10;92.00;;;;;;5127001;27;27331;-46
2021/01/25 01:23:12;;;;;;;6.18;3.45;;;-0.10;92.20;;;;;;5127387;27;27382;-46
2021/01/25 01:25:57;;;;;;;5.53;3.05;;;-0.10;92.30;;;;;;5127164;27;27307;-46
2021/01/25 01:28:41;;;;;;;5.80;3.13;;;-0.10;92.40;;;;;;5126955;27;27864;-46
2021/01/25 01:31:26;;;;;;;8.13;3.67;;;0.00;92.60;;;;;;5127212;27;27385;-47
2021/01/25 01:34:10;;;;;;;6.15;3.40;;;0.00;92.70;;;;;;5127359;27;27461;-46
2021/01/25 01:36:55;;;;;;;4.57;3.03;;;0.00;92.80;;;;;;5126856;27;27445;-46
2021/01/25 01:39:39;;;;;;;5.90;3.80;;;0.00;92.80;;;;;;5127030;27;27856;-46
2021/01/25 01:42:24;;;;;;;7.47;3.63;;;0.10;92.90;;;;;;5126003;27;27478;-45
2021/01/25 01:45:09;;;;;;;5.70;3.60;;;0.00;92.90;;;;;;5126977;27;26898;-46
2021/01/25 01:47:53;;;;;;;4.45;3.17;;;0.10;93.00;;;;;;5126396;27;27399;-45
2021/01/25 01:50:38;;;;;;;5.57;3.33;;;0.10;93.00;;;;;;5126140;27;27453;-48
2021/01/25 01:53:22;;;;;;;4.95;2.97;;;0.10;93.10;;;;;;5125865;27;27490;-47
2021/01/25 01:56:07;;;;;;;4.80;3.30;;;0.10;93.10;;;;;;5126629;27;27416;-46
2021/01/25 01:58:52;;;;;;;5.55;3.88;;;0.20;93.10;;;;;;5126777;27;27407;-47
2021/01/25 02:01:36;;;;;;;8.52;3.83;;;0.20;93.20;;;;;;5126693;27;27987;-46
2021/01/25 02:04:22;;;;;;;8.15;3.65;;;0.20;93.20;;;;;;5122040;27;27397;-46
2021/01/25 02:07:07;;;;;;;7.97;3.90;;;0.20;93.20;;;;;;5126441;27;27454;-46
2021/01/25 02:09:51;;;;;;;5.07;3.15;;;0.20;93.30;;;;;;5125549;27;27410;-47
2021/01/25 02:12:36;;;;;;;6.85;4.30;;;0.20;93.30;;;;;;5125952;27;27468;-43
2021/01/25 02:15:21;;;;;;;8.13;3.40;;;0.20;93.30;;;;;;5125652;27;27622;-47
2021/01/25 02:18:06;;;;;;;7.25;3.75;;;0.30;93.40;;;;;;5108153;27;27390;-46
2021/01/25 02:20:50;;;;;;;6.25;3.70;;;0.30;93.50;;;;;;5125474;27;27550;-46
2021/01/25 02:23:52;;;;;;;7.28;3.55;;;0.30;93.50;;;;;;5126128;27;27446;-48
2021/01/25 02:26:52;;;;;;;6.28;3.67;;;0.30;93.60;;;;;;5121741;27;27386;-46
2021/01/25 02:29:36;;;;;;;5.80;3.67;;;0.40;93.60;;;;;;5126346;27;27440;-47
2021/01/25 02:32:21;;;;;;;8.32;3.88;;;0.30;93.60;;;;;;5126230;27;27411;-46
2021/01/25 02:35:10;;;;;;;5.90;3.53;;;0.40;93.60;;;;;;5126003;27;27401;-46
2021/01/25 02:37:55;;;;;;;6.03;3.67;;;0.40;93.70;;;;;;5111424;27;27505;-46
2021/01/25 02:40:40;;;;;;;7.00;3.92;;;0.40;93.70;;;;;;5124913;27;27414;-46
2021/01/25 02:43:24;;;;;;;7.53;4.20;;;0.40;93.80;;;;;;5125268;27;27395;-47
2021/01/25 02:46:09;;;;;;;7.03;4.03;;;0.50;93.80;;;;;;5125016;27;27430;-46
2021/01/25 02:48:55;;;;;;;6.75;3.78;;;0.50;93.80;;;;;;5125655;27;27413;-46
2021/01/25 02:51:39;;;;;;;7.28;4.25;;;0.50;93.80;;;;;;5125952;27;27422;-46
2021/01/25 02:54:24;;;;;;;9.25;3.95;;;0.50;93.90;;;;;;5125931;27;27511;-45
2021/01/25 02:57:09;;;;;;;8.95;5.18;;;0.50;93.90;;;;;;5125840;27;27410;-46
2021/01/25 02:59:53;;;;;;;7.90;4.22;;;0.50;93.90;;;;;;5125069;27;27406;-46
2021/01/25 03:02:37;;;;;;;6.95;4.65;;;0.50;94.00;;;;;;5124853;27;27417;-47
2021/01/25 03:05:22;;;;;;;11.52;4.95;;;0.60;94.00;;;;;;5110111;27;27422;-47
2021/01/25 03:08:07;;;;;;;9.77;5.25;;;0.60;94.00;;;;;;5122367;27;27418;-46
2021/01/25 03:10:52;;;;;;;9.27;5.70;;;0.60;94.10;;;;;;5124672;27;27491;-46
2021/01/25 03:13:36;;;;;;;9.52;5.75;;;0.60;94.10;;;;;;5125679;27;27488;-47
2021/01/25 03:16:21;;;;;;;9.98;4.72;;;0.60;94.10;;;;;;5124871;27;27473;-47
2021/01/25 03:19:05;;;;;;;7.57;4.93;;;0.60;94.20;;;;;;5125259;27;27343;-46
2021/01/25 03:21:51;;;;;;;10.00;4.90;;;0.60;94.20;;;;;;5125530;27;27588;-47
2021/01/25 03:24:35;;;;;;;11.27;5.90;;;0.70;94.30;;;;;;5125323;27;27335;-45
2021/01/25 03:27:20;;;;;;;9.80;5.50;;;0.70;94.30;;;;;;5125458;27;27390;-46
2021/01/25 03:30:09;;;;;;;14.68;5.72;;;0.70;94.30;;;;;;5122125;27;27366;-46
2021/01/25 03:32:53;;;;;;;9.73;5.40;;;0.70;94.30;;;;;;5125033;27;27407;-47
2021/01/25 03:35:38;;;;;;;9.35;5.45;;;0.70;94.30;;;;;;5124858;27;27516;-47
2021/01/25 03:38:22;;;;;;;7.45;5.07;;;0.70;94.30;;;;;;5125022;27;27403;-47
2021/01/25 03:41:07;;;;;;;8.13;5.60;;;0.80;94.30;;;;;;5125209;27;27465;-47
2021/01/25 03:43:51;;;;;;;10.93;5.47;;;0.80;94.30;;;;;;5125191;27;27398;-47
2021/01/25 03:46:36;;;;;;;10.20;5.88;;;0.80;94.30;;;;;;5121653;27;27482;-47
2021/01/25 03:49:20;;;;;;;8.57;5.32;;;0.80;94.70;;;;;;5125204;27;27354;-46
2021/01/25 03:52:05;;;;;;;9.27;5.10;;;0.80;94.40;;;;;;5125217;27;27841;-47
2021/01/25 03:54:49;;;;;;;7.93;5.63;;;0.90;94.40;;;;;;5125062;27;27381;-47
2021/01/25 03:57:33;;;;;;;7.00;5.20;;;0.80;94.40;;;;;;5125083;27;27390;-45
2021/01/25 04:00:19;;;;;;;10.63;6.47;;;0.90;94.40;;;;;;5124810;27;27377;-47
2021/01/25 04:03:03;;;;;;;9.07;5.60;;;0.90;94.50;;;;;;5124541;27;27844;-46
2021/01/25 04:05:48;;;;;;;10.07;6.30;;;0.90;94.40;;;;;;5128231;27;27389;-47
2021/01/25 04:08:32;;;;;;;8.57;5.70;;;0.90;94.40;;;;;;5128163;27;27389;-44
2021/01/25 04:11:17;;;;;;;9.00;5.90;;;0.90;94.50;;;;;;5128315;27;27324;-46
2021/01/25 04:14:01;;;;;;;8.25;5.93;;;1.00;94.60;;;;;;5128233;27;27384;-46
2021/01/25 04:16:46;;;;;;;9.20;6.18;;;1.00;94.60;;;;;;5128210;27;27609;-48
2021/01/25 04:19:31;;;;;;;11.00;5.88;;;1.00;94.60;;;;;;5128223;27;27419;-48
2021/01/25 04:22:16;;;;;;;7.82;5.93;;;1.00;94.60;;;;;;5128446;27;27396;-46
2021/01/25 04:25:00;;;;;;;7.88;5.88;;;1.00;94.60;;;;;;5128235;27;27951;-46
2021/01/25 04:27:45;;;;;;;12.35;6.20;;;1.00;94.60;;;;;;5128275;27;27386;-46
2021/01/25 04:30:29;;;;;;;9.98;6.47;;;1.00;94.60;;;;;;5127050;27;27410;-47
2021/01/25 04:33:13;;;;;;;8.88;5.88;;;1.00;94.60;;;;;;5128174;27;27426;-47
2021/01/25 04:35:58;;;;;;;13.48;6.80;;;1.00;94.60;;;;;;5127853;27;27422;-48
2021/01/25 04:38:42;;;;;;;11.70;6.20;;;1.00;94.60;;;;;;5128130;27;27476;-46
2021/01/25 04:41:28;;;;;;;12.35;6.47;;;1.00;94.60;;;;;;5128185;27;27395;-47
2021/01/25 04:44:12;;;;;;;9.18;5.65;;;1.10;94.70;;;;;;5127287;27;27471;-47
2021/01/25 04:46:57;;;;;;;9.52;6.10;;;1.10;94.70;;;;;;5112367;27;27430;-45
2021/01/25 04:49:41;;;;;;;8.95;5.68;;;1.10;95.00;;;;;;5112351;27;27434;-46
2021/01/25 04:52:25;;;;;;;10.40;6.15;;;1.10;94.70;;;;;;5126853;27;27375;-45
2021/01/25 04:55:10;;;;;;;7.53;5.65;;;1.10;94.70;;;;;;5126824;27;27378;-46
2021/01/25 04:57:55;;;;;;;8.65;6.72;;;1.10;94.70;;;;;;5127023;27;27364;-47
2021/01/25 05:00:40;;;;;;;11.05;6.50;;;1.10;94.70;;;;;;5127786;27;27401;-47
2021/01/25 05:03:24;;;;;;;9.35;6.35;;;1.10;94.80;;;;;;5126727;27;27362;-47
2021/01/25 05:06:09;;;;;;;9.27;6.75;;;1.10;94.80;;;;;;5127238;27;27401;-46
2021/01/25 05:08:53;;;;;;;10.52;5.85;;;1.10;94.80;;;;;;5127281;27;27389;-47
2021/01/25 05:11:38;;;;;;;8.18;5.22;;;1.20;94.80;;;;;;5127235;27;27331;-49
2021/01/25 05:14:22;;;;;;;9.40;6.07;;;1.20;94.80;;;;;;5127604;27;27334;-46
2021/01/25 05:17:08;;;;;;;10.85;6.53;;;1.20;94.80;;;;;;5123137;27;27302;-47
2021/01/25 05:19:56;;;;;;;9.52;6.82;;;1.20;94.80;;;;;;5127157;27;27975;-46
2021/01/25 05:22:41;;;;;;;10.63;5.82;;;1.20;94.90;;;;;;5126328;27;27450;-45
2021/01/25 05:25:27;;;;;;;10.55;6.32;;;1.20;94.90;;;;;;5125810;27;27417;-47
2021/01/25 05:28:19;;;;;;;8.32;5.35;;;1.20;94.90;;;;;;5127134;27;27448;-46
2021/01/25 05:31:04;;;;;;;8.25;5.70;;;1.20;94.90;;;;;;5127267;27;27358;-47
2021/01/25 05:33:49;;;;;;;8.43;5.78;;;1.20;94.90;;;;;;5127170;27;27518;-46
2021/01/25 05:36:33;;;;;;;10.02;5.65;;;1.20;94.90;;;;;;5126954;27;27363;-47
2021/01/25 05:39:18;;;;;;;9.85;6.50;;;1.20;94.90;;;;;;5123097;27;27314;-47
2021/01/25 05:42:03;;;;;;;9.23;5.60;;;1.20;94.90;;;;;;5126766;27;27448;-46
2021/01/25 05:44:48;;;;;;;11.80;6.50;;;1.20;94.90;;;;;;5126720;27;27375;-48
2021/01/25 05:47:45;;;;;;;8.05;6.07;;;1.20;94.90;;;;;;5126300;27;27380;-46
2021/01/25 05:50:35;;;;;;;10.75;6.75;;;1.20;94.90;;;;;;5126667;27;27314;-47
2021/01/25 05:53:20;;;;;;;9.27;6.63;;;1.20;94.90;;;;;;5126839;27;27952;-47
2021/01/25 05:56:11;;;;;;;10.70;6.40;;;1.20;94.80;;;;;;5111331;27;27464;-47
2021/01/25 05:58:56;;;;;;;9.35;6.15;;;1.20;94.80;;;;;;5126990;27;27367;-48
2021/01/25 06:01:45;;;;;;;9.43;6.18;;;1.20;94.80;;;;;;5122741;27;27518;-46
2021/01/25 06:04:30;;;;;;;11.85;6.15;;;1.20;94.80;;;;;;5125983;27;27467;-46
2021/01/25 06:07:14;;;;;;;8.55;6.32;;;1.20;94.70;;;;;;5111308;27;27466;-47
2021/01/25 06:09:59;;;;;;;7.72;6.15;;;1.30;94.70;;;;;;5109508;27;27472;-46
2021/01/25 06:12:44;;;;;;;12.00;6.45;;;1.20;94.70;;;;;;5111412;27;27453;-48
2021/01/25 06:15:30;;;;;;;9.68;6.72;;;1.20;94.60;;;;;;5126344;27;27406;-47
2021/01/25 06:18:15;;;;;;;10.25;7.18;;;1.20;94.60;;;;;;5125035;27;27469;-48
2021/01/25 06:21:00;;;;;;;14.18;7.20;;;1.20;94.70;;;;;;5122488;27;27457;-47
2021/01/25 06:23:44;;;;;;;12.15;7.47;;;1.20;94.60;;;;;;5110903;27;27430;-47
2021/01/25 06:26:33;;;;;;;10.77;6.95;;;1.20;94.60;;;;;;5125027;27;27464;-48
2021/01/25 06:29:19;;;;;;;10.52;6.90;;;1.20;94.60;;;;;;5125310;27;27432;-47
2021/01/25 06:32:04;;;;;;;10.63;6.57;;;1.20;94.60;;;;;;5126359;27;27338;-47
2021/01/25 06:34:49;;;;;;;12.80;6.55;;;1.20;94.60;;;;;;5125551;27;27344;-47
2021/01/25 06:37:34;;;;;;;12.10;7.57;;;1.20;94.60;;;;;;5110773;27;27914;-46
2021/01/25 06:40:23;;;;;;;10.98;6.32;;;1.20;94.60;;;;;;5125223;27;27332;-47
2021/01/25 06:43:09;;;;;;;9.48;6.55;;;1.10;94.60;;;;;;5125872;27;27488;-43
2021/01/25 06:45:53;;;;;;;10.85;6.80;;;1.10;94.60;;;;;;5125332;27;27616;-46
2021/01/25 06:48:38;;;;;;;11.07;6.82;;;1.10;94.60;;;;;;5110861;27;27457;-46
2021/01/25 06:51:22;;;;;;;13.85;6.55;;;1.10;94.60;;;;;;5124832;27;27434;-46
2021/01/25 06:54:09;;;;;;;10.95;7.15;;;1.10;94.70;;;;;;5110757;27;27472;-46
2021/01/25 06:56:58;;;;;;;8.73;6.20;;;1.10;94.70;;;;;;5125556;27;27393;-48
2021/01/25 06:59:43;;;;;;;13.52;6.97;;;1.10;94.70;;;;;;5125798;27;27936;-46
2021/01/25 07:02:28;;;;;;;12.40;8.20;;;1.10;94.70;;;;;;5124814;27;27315;-49
2021/01/25 07:05:13;;;;;;;14.73;7.95;;;1.10;94.70;;;;;;5121716;27;27448;-52
2021/01/25 07:08:15;;;;;;;18.50;9.20;;;1.10;94.70;;;;;;5121414;27;27323;-48
2021/01/25 07:11:04;;;;;;;18.90;9.43;;;1.10;94.70;;;;;;5084718;28;27490;-47
2021/01/25 07:13:49;;;;;;;20.33;9.13;;;1.10;94.80;;;;;;5084163;28;27345;-47
2021/01/25 07:16:35;;;;;;;16.73;9.45;;;1.10;94.70;;;;;;5084648;28;27458;-47
2021/01/25 07:19:20;;;;;;;19.25;9.35;;;1.10;94.70;;;;;;5084369;28;27333;-46
2021/01/25 07:22:05;;;;;;;16.02;8.20;;;1.10;94.70;;;;;;5084155;28;27398;-48
2021/01/25 07:24:49;;;;;;;14.52;8.32;;;1.10;94.80;;;;;;5083741;28;27352;-48
2021/01/25 07:27:34;;;;;;;15.57;8.90;;;1.10;94.80;;;;;;5084580;28;27392;-50
2021/01/25 07:30:19;;;;;;;12.80;7.88;;;1.10;94.80;;;;;;5084231;28;27316;-50
2021/01/25 07:33:05;;;;;;;15.40;8.32;;;1.10;94.80;;;;;;5084393;28;27410;-47
2021/01/25 07:35:49;;;;;;;12.65;7.47;;;1.10;94.80;;;;;;5084063;28;27323;-48
2021/01/25 07:38:34;;;;;;;12.68;7.55;;;1.10;94.80;;;;;;5083112;28;27353;-47
2021/01/25 07:41:18;;;;;;;12.88;7.32;;;1.10;94.80;;;;;;5084083;28;27395;-50
2021/01/25 07:44:05;;;;;;;13.85;6.78;;;1.10;94.80;;;;;;5084127;28;27888;-46
2021/01/25 07:46:50;;;;;;;12.50;7.32;;;1.10;94.80;;;;;;5083654;28;27399;-45
2021/01/25 07:49:37;;;;;;;11.82;7.07;;;1.10;94.80;;;;;;5084322;28;27348;-45
2021/01/25 07:52:22;;;;;;;11.00;7.30;;;1.10;94.80;;;;;;5084233;28;27380;-46
2021/01/25 07:55:16;;;;;;;13.90;8.00;;;1.10;94.90;;;;;;5084159;28;27423;-47
2021/01/25 07:58:10;;;;;;;11.55;6.78;;;1.10;94.90;;;;;;5083920;28;27401;-48
2021/01/25 08:00:55;;;;;;;11.38;7.30;;;1.10;94.90;;;;;;5080934;28;27367;-47
2021/01/25 08:03:41;;;;;;;10.70;7.00;;;1.10;94.90;;;;;;5084102;28;27403;-47
2021/01/25 08:06:29;;;;;;;8.60;5.15;;;1.20;95.00;;;;;;5082957;28;27506;-48
2021/01/25 08:09:13;;;;;;;11.70;6.07;;;1.20;95.00;;;;;;5093023;27;27462;-47
2021/01/25 08:11:59;;;;;;;9.65;6.43;;;1.20;95.00;;;;;;5124125;27;27476;-47
2021/01/25 08:14:47;;;;;;;11.95;7.00;;;1.20;95.00;;;;;;5124870;27;27410;-47
2021/01/25 08:17:42;;;;;;;12.48;6.97;;;1.20;95.10;;;;;;5124111;27;27336;-46
2021/01/25 08:20:29;;;;;;;10.57;6.53;;;1.20;95.10;;;;;;5124799;27;27540;-47
2021/01/25 08:23:18;;;;;;;13.90;7.13;;;1.20;95.10;;;;;;5123755;27;27358;-47
2021/01/25 08:26:03;;;;;;;11.27;6.18;;;1.20;95.10;;;;;;5124560;27;27433;-47
2021/01/25 08:28:47;;;;;;;12.57;7.38;;;1.20;95.10;;;;;;5123667;27;27436;-46
2021/01/25 08:31:31;;;;;;;8.75;6.25;;;1.20;95.10;;;;;;5124618;27;27482;-46
2021/01/25 08:34:29;;;;;;;9.02;6.07;;;1.20;95.10;;;;;;5120343;27;27403;-49
2021/01/25 08:37:24;;;;;;;13.40;6.57;;;1.20;95.20;;;;;;5121031;27;27390;-46
2021/01/25 08:40:16;;;;;;;13.88;6.72;;;1.20;95.20;;;;;;5123745;27;27451;-47
2021/01/25 08:43:01;;;;;;;11.10;6.53;;;1.20;95.20;;;;;;5124395;27;27327;-48
2021/01/25 08:45:45;;;;;;;11.05;7.50;;;1.30;95.30;;;;;;5120810;27;27402;-47
2021/01/25 08:48:33;;;;;;;11.85;7.50;;;1.30;95.30;;;;;;5124131;27;27387;-44
2021/01/25 08:51:29;;;;;;;12.23;7.18;;;1.30;95.40;;;;;;5126842;27;27383;-50
2021/01/25 08:54:23;;;;;;;10.13;7.18;;;1.30;95.40;;;;;;5127386;27;27469;-51
2021/01/25 08:57:17;;;;;;;12.48;6.90;;;1.30;95.40;;;;;;5127788;27;27410;-49
2021/01/25 09:00:14;;;;;;;14.32;7.63;;;1.30;95.50;;;;;;5127363;27;27459;-48
2021/01/25 09:03:00;;;;;;;11.60;7.07;;;1.30;95.40;;;;;;5127056;27;27859;-47
2021/01/25 09:05:45;;;;;;;11.65;7.20;;;1.40;95.40;;;;;;5126470;27;27477;-47
2021/01/25 09:08:29;;;;;;;11.85;7.47;;;1.40;95.40;;;;;;5126999;27;27497;-47
2021/01/25 09:11:14;;;;;;;13.77;7.45;;;1.40;95.40;;;;;;5127563;27;27432;-47
2021/01/25 09:13:58;;;;;;;14.13;7.63;;;1.40;95.40;;;;;;5127470;27;27411;-49
2021/01/25 09:16:44;;;;;;;14.23;8.43;;;1.40;95.40;;;;;;5127399;27;27484;-47
2021/01/25 09:19:28;;;;;;;14.57;9.10;;;1.40;95.40;;;;;;5127207;27;27422;-47
2021/01/25 09:22:13;;;;;;;12.70;8.35;;;1.40;95.40;;;;;;5127327;27;27430;-48
2021/01/25 09:24:58;;;;;;;15.93;9.07;;;1.40;95.40;;;;;;5127282;27;27422;-47
2021/01/25 09:27:43;;;;;;;16.30;9.40;;;1.40;95.40;;;;;;5127246;27;27439;-48
2021/01/25 09:30:28;;;;;;;13.10;9.18;;;1.50;95.40;;;;;;5127011;27;27481;-48
2021/01/25 09:33:12;;;;;;;14.70;9.50;;;1.50;95.40;;;;;;5127009;27;27411;-47
2021/01/25 09:35:57;;;;;;;15.27;9.00;;;1.50;95.40;;;;;;5127190;27;27454;-49
2021/01/25 09:38:41;;;;;;;14.82;8.95;;;1.50;95.40;;;;;;5126805;27;27407;-49
2021/01/25 09:41:27;;;;;;;16.02;8.90;;;1.50;95.40;;;;;;5127138;27;27401;-47
2021/01/25 09:44:12;;;;;;;16.77;9.50;;;1.50;95.40;;;;;;5126779;27;27453;-49
2021/01/25 09:46:57;;;;;;;14.48;8.15;;;1.60;95.40;;;;;;5126702;27;27442;-48
2021/01/25 09:49:41;;;;;;;13.82;8.88;;;1.60;95.30;;;;;;5127002;27;27457;-49
2021/01/25 09:52:26;;;;;;;13.27;9.00;;;1.60;95.40;;;;;;5126327;27;27389;-44
2021/01/25 09:55:11;;;;;;;14.60;8.75;;;1.60;95.40;;;;;;5126978;27;27316;-49
2021/01/25 09:57:56;;;;;;;13.40;8.77;;;1.60;95.30;;;;;;5126070;27;27373;-49
2021/01/25 10:00:40;;;;;;;16.15;9.50;;;1.60;95.30;;;;;;5126511;27;27582;-47
2021/01/25 10:03:28;;;;;;;14.93;8.55;;;1.70;95.60;;;;;;5125804;27;27381;-48
2021/01/25 10:06:13;;;;;;;14.20;8.93;;;1.70;95.20;;;;;;5126115;27;27468;-47
2021/01/25 10:08:57;;;;;;;16.50;8.82;;;1.70;95.30;;;;;;5125945;27;27440;-49
2021/01/25 10:11:42;;;;;;;14.32;8.57;;;1.70;95.20;;;;;;5126624;27;27516;-48
2021/01/25 10:14:26;;;;;;;12.93;8.15;;;1.80;95.10;;;;;;5126619;27;27359;-49
2021/01/25 10:17:11;;;;;;;13.18;8.25;;;1.80;95.10;;;;;;5125855;27;27744;-48
2021/01/25 10:19:56;;;;;;;13.80;8.18;;;1.80;95.10;;;;;;5126097;27;27397;-50
2021/01/25 10:22:40;;;;;;;14.07;8.02;;;1.90;95.00;;;;;;5126432;27;27464;-49
2021/01/25 10:25:25;;;;;;;15.48;8.77;;;1.90;95.00;;;;;;5123094;27;27357;-46
2021/01/25 10:28:09;;;;;;;15.73;7.55;;;1.90;94.90;;;;;;5123044;27;27352;-49
2021/01/25 10:30:54;;;;;;;14.40;8.13;;;1.90;94.90;;;;;;5125463;27;27867;-51
2021/01/25 10:33:39;;;;;;;9.85;7.95;;;2.00;94.90;;;;;;5126307;27;27439;-49
2021/01/25 10:36:23;;;;;;;11.82;8.23;;;2.00;94.90;;;;;;5126249;27;27379;-46
2021/01/25 10:39:08;;;;;;;10.88;7.03;;;2.00;94.80;;;;;;5125962;27;27381;-51
2021/01/25 10:41:52;;;;;;;13.90;8.25;;;2.10;94.80;;;;;;5125763;27;27947;-47
2021/01/25 10:44:37;;;;;;;13.00;7.60;;;2.10;94.70;;;;;;5126052;27;27459;-49
2021/01/25 10:47:21;;;;;;;11.82;7.57;;;2.10;94.70;;;;;;5125679;27;26964;-50
2021/01/25 10:50:07;;;;;;;11.07;7.40;;;2.10;94.60;;;;;;5125720;27;27500;-49
2021/01/25 10:52:52;;;;;;;12.90;7.68;;;2.20;94.60;;;;;;5125325;27;27422;-53
2021/01/25 10:55:36;;;;;;;11.98;7.90;;;2.20;94.50;;;;;;5125874;27;27456;-50
2021/01/25 10:58:21;;;;;;;10.40;7.50;;;2.30;94.50;;;;;;5125991;27;27390;-49
2021/01/25 11:01:05;;;;;;;10.30;6.90;;;2.30;94.40;;;;;;5125557;27;27414;-49
2021/01/25 11:03:51;;;;;;;12.77;7.22;;;2.30;94.40;;;;;;5125771;27;27445;-51
2021/01/25 11:06:35;;;;;;;11.80;7.00;;;2.30;94.40;;;;;;5121165;27;27543;-51
2021/01/25 11:09:20;;;;;;;14.30;6.82;;;2.40;94.30;;;;;;5125290;27;27437;-53
2021/01/25 11:12:05;;;;;;;12.50;7.55;;;2.40;94.30;;;;;;5125647;27;27466;-50
2021/01/25 11:14:49;;;;;;;11.45;7.38;;;2.40;94.20;;;;;;5124122;27;27465;-52
2021/01/25 11:17:34;;;;;;;10.18;6.38;;;2.50;94.20;;;;;;5125603;27;27469;-49
2021/01/25 11:20:18;;;;;;;11.15;6.80;;;2.50;94.20;;;;;;5125215;27;27391;-50
2021/01/25 11:23:03;;;;;;;10.23;6.75;;;2.50;94.40;;;;;;5125306;27;27402;-52
2021/01/25 11:25:47;;;;;;;12.88;6.53;;;2.50;94.10;;;;;;5125330;27;27946;-52
2021/01/25 11:28:32;;;;;;;10.15;6.47;;;2.60;94.20;;;;;;5125430;27;27432;-50
2021/01/25 11:31:16;;;;;;;12.98;6.47;;;2.60;94.20;;;;;;5125511;27;27442;-49
2021/01/25 11:34:01;;;;;;;9.27;6.38;;;2.50;94.20;;;;;;5125457;27;27328;-51
2021/01/25 11:36:45;;;;;;;11.02;6.30;;;2.60;94.30;;;;;;5124599;27;27399;-50
2021/01/25 11:39:30;;;;;;;12.30;6.22;;;2.60;94.30;;;;;;5125349;27;27331;-53
2021/01/25 11:42:15;;;;;;;16.00;7.05;;;2.60;94.40;;;;;;5125098;27;27369;-51
2021/01/25 11:45:00;;;;;;;12.20;6.80;;;2.60;94.50;;;;;;5125309;27;27319;-53
2021/01/25 11:47:44;;;;;;;9.90;6.82;;;2.60;94.50;;;;;;5124585;27;28014;-52
2021/01/25 11:50:29;;;;;;;12.60;7.93;;;2.60;94.50;;;;;;5124848;27;27311;-52
2021/01/25 11:53:13;;;;;;;11.80;7.13;;;2.70;94.60;;;;;;5124920;27;27393;-51
2021/01/25 11:55:58;;;;;;;12.27;6.85;;;2.70;94.50;;;;;;5125130;27;27311;-51
2021/01/25 11:58:43;;;;;;;13.43;7.03;;;2.70;94.50;;;;;;5121750;27;28069;-52
2021/01/25 12:01:28;;;;;;;13.73;7.50;;;2.70;94.50;;;;;;5125060;27;27599;-50
2021/01/25 12:04:12;;;;;;;13.43;6.82;;;2.80;94.50;;;;;;5124804;27;27374;-51
2021/01/25 12:06:57;;;;;;;14.48;7.05;;;2.80;94.40;;;;;;5124801;27;27359;-49
2021/01/25 12:09:41;;;;;;;7.93;6.22;;;2.80;94.40;;;;;;5124242;27;27433;-49
2021/01/25 12:12:27;;;;;;;10.60;6.47;;;2.80;94.30;;;;;;5124442;27;27466;-47
2021/01/25 12:15:12;;;;;;;9.95;7.07;;;2.80;94.30;;;;;;5120876;27;27385;-51
2021/01/25 12:17:57;;;;;;;11.02;7.07;;;2.80;94.30;;;;;;5121295;27;27355;-48
2021/01/25 12:20:41;;;;;;;7.90;5.28;;;2.80;94.30;;;;;;5124487;27;27978;-50
2021/01/25 12:23:26;;;;;;;9.82;5.75;;;2.80;94.30;;;;;;5124722;27;27460;-49
2021/01/25 12:26:10;;;;;;;7.75;5.20;;;2.90;94.20;;;;;;5127058;27;27425;-50
2021/01/25 12:28:55;;;;;;;9.77;5.30;;;2.90;94.20;;;;;;5128373;27;27471;-48
2021/01/25 12:31:39;;;;;;;7.13;4.47;;;2.90;94.20;;;;;;5124697;27;27971;-52
2021/01/25 12:34:26;;;;;;;6.88;4.97;;;2.90;94.10;;;;;;5128290;27;27460;-47
2021/01/25 12:37:10;;;;;;;4.90;3.83;;;2.90;94.10;;;;;;5127555;27;27430;-49
2021/01/25 12:39:55;;;;;;;6.03;3.65;;;2.90;94.10;;;;;;5124888;27;27452;-50
2021/01/25 12:42:39;;;;;;;7.20;3.22;;;3.00;94.10;;;;;;5127539;27;27665;-50
2021/01/25 12:45:25;;;;;;;6.10;3.47;;;2.90;94.00;;;;;;5123905;27;27402;-49
2021/01/25 12:48:10;;;;;;;6.30;3.20;;;2.90;94.00;;;;;;5127092;27;26901;-49
2021/01/25 12:50:54;;;;;;;5.65;3.22;;;2.90;94.00;;;;;;5127974;27;26910;-48
2021/01/25 12:53:38;;;;;;;5.68;2.63;;;2.90;94.00;;;;;;5127880;27;27404;-46
2021/01/25 12:56:23;;;;;;;4.05;2.85;;;2.90;94.10;;;;;;5127615;27;27472;-46
2021/01/25 12:59:08;;;;;;;3.67;3.10;;;2.90;94.10;;;;;;5127631;27;27583;-50
2021/01/25 13:01:52;;;;;;;4.07;2.58;;;2.90;94.10;;;;;;5127825;27;27529;-52
2021/01/25 13:04:37;;;;;;;3.65;2.40;;;2.80;94.10;;;;;;5127671;27;27410;-53
2021/01/25 13:07:21;;;;;;;3.97;2.58;;;2.80;94.10;;;;;;5123038;27;27460;-48
2021/01/25 13:10:07;;;;;;;3.13;2.25;;;2.80;94.20;;;;;;5125803;27;27182;-55
2021/01/25 13:12:51;;;;;;;3.10;2.45;;;2.80;94.20;;;;;;5123306;27;27377;-53
2021/01/25 13:15:36;;;;;;;3.08;2.20;;;2.80;94.60;;;;;;5127567;27;27393;-56
2021/01/25 13:18:20;;;;;;;3.22;2.10;;;2.80;94.30;;;;;;5127295;27;27405;-51
2021/01/25 13:21:05;;;;;;;2.67;2.08;;;2.80;94.30;;;;;;5127325;27;27390;-55
2021/01/25 13:23:50;;;;;;;3.85;2.33;;;2.80;94.30;;;;;;5127536;27;27436;-54
2021/01/25 13:26:34;;;;;;;2.90;2.15;;;2.80;94.30;;;;;;5127253;27;27422;-55
2021/01/25 13:29:19;;;;;;;2.28;1.95;;;2.70;94.30;;;;;;5127076;27;27386;-56
2021/01/25 13:32:03;;;;;;;8.77;2.45;;;2.70;94.30;;;;;;5123838;27;27354;-55
2021/01/25 13:34:48;;;;;;;3.08;2.03;;;2.70;94.30;;;;;;5126906;27;27355;-55
2021/01/25 13:37:32;;;;;;;3.20;1.98;;;2.70;94.30;;;;;;5126201;27;27856;-57
2021/01/25 13:40:18;;;;;;;4.07;2.05;;;2.70;94.30;;;;;;5126923;27;27404;-57
2021/01/25 13:43:03;;;;;;;2.30;1.92;;;2.80;94.30;;;;;;5126962;27;27351;-57
2021/01/25 13:45:48;;;;;;;2.78;2.25;;;2.80;94.30;;;;;;5126788;27;27342;-56
2021/01/25 13:48:32;;;;;;;3.60;2.20;;;2.80;94.30;;;;;;5126043;27;27340;-56
2021/01/25 13:51:17;;;;;;;2.63;1.80;;;2.90;94.20;;;;;;5127022;27;27371;-56
2021/01/25 13:54:01;;;;;;;2.10;1.90;;;3.00;94.20;;;;;;5127101;27;27420;-56
2021/01/25 13:56:46;;;;;;;1.80;1.60;;;3.00;93.80;;;;;;5126965;27;27314;-53
2021/01/25 13:59:30;;;;;;;2.40;1.85;;;3.00;93.60;;;;;;5126600;27;27476;-56
2021/01/25 14:02:14;;;;;;;2.47;1.77;;;3.00;93.50;;;;;;5123206;27;27440;-56
2021/01/25 14:04:59;;;;;;;3.20;1.80;;;3.00;93.50;;;;;;5126893;27;27414;-55
2021/01/25 14:07:44;;;;;;;5.18;1.92;;;3.00;93.60;;;;;;5126495;27;27452;-55
2021/01/25 14:10:28;;;;;;;4.97;2.08;;;3.00;93.60;;;;;;5125594;27;27438;-57
2021/01/25 14:13:12;;;;;;;2.85;1.90;;;3.00;93.60;;;;;;5126347;27;27426;-55
2021/01/25 14:15:57;;;;;;;3.35;2.22;;;3.00;93.70;;;;;;5126705;27;27406;-56
2021/01/25 14:18:42;;;;;;;6.72;2.13;;;3.00;93.80;;;;;;5126596;27;27503;-57
2021/01/25 14:21:27;;;;;;;5.15;2.45;;;3.00;93.90;;;;;;5126362;27;27585;-57
2021/01/25 14:24:11;;;;;;;4.75;2.10;;;3.00;94.00;;;;;;5126475;27;27363;-56
2021/01/25 14:26:55;;;;;;;6.70;2.58;;;2.90;94.00;;;;;;5125514;27;27401;-56